sensor_id;sensor_type;location;lat;lon;timestamp;P1;durP1;ratioP1;P2;durP2;ratioP2
30149;SDS011;16962;48.646;9.026;2023-03-23T00:01:21;7.32;;;2.30;;
30149;SDS011;16962;48.646;9.026;2023-03-23T00:04:09;3.72;;;2.22;;
30149;SDS011;16962;48.646;9.026;2023-03-23T00:06:58;7.32;;;2.35;;
30149;SDS011;16962;48.646;9.026;2023-03-23T00:09:48;5.55;;;2.90;;
30149;SDS011;16962;48.646;9.026;2023-03-23T00:12:40;6.90;;;2.92;;
30149;SDS011;16962;48.646;9.026;2023-03-23T00:15:30;7.20;;;3.40;;
30149;SDS011;16962;48.646;9.026;2023-03-23T00:18:19;6.18;;;2.88;;
30149;SDS011;16962;48.646;9.026;2023-03-23T00:23:57;5.78;;;2.58;;
30149;SDS011;16962;48.646;9.026;2023-03-23T00:26:45;4.88;;;2.38;;
30149;SDS011;16962;48.646;9.026;2023-03-23T00:29:35;2.15;;;1.80;;
30149;SDS011;16962;48.646;9.026;2023-03-23T00:32:22;2.90;;;1.60;;
30149;SDS011;16962;48.646;9.026;2023-03-23T00:35:12;3.35;;;2.00;;
30149;SDS011;16962;48.646;9.026;2023-03-23T00:37:58;2.60;;;1.90;;
30149;SDS011;16962;48.646;9.026;2023-03-23T00:40:47;6.15;;;1.83;;
30149;SDS011;16962;48.646;9.026;2023-03-23T00:43:35;3.85;;;1.98;;
30149;SDS011;16962;48.646;9.026;2023-03-23T00:46:24;4.05;;;2.10;;
30149;SDS011;16962;48.646;9.026;2023-03-23T00:49:11;3.65;;;2.00;;
30149;SDS011;16962;48.646;9.026;2023-03-23T00:51:58;5.35;;;2.00;;
30149;SDS011;16962;48.646;9.026;2023-03-23T00:54:44;4.03;;;2.00;;
30149;SDS011;16962;48.646;9.026;2023-03-23T00:57:32;5.80;;;1.98;;
30149;SDS011;16962;48.646;9.026;2023-03-23T01:00:18;4.43;;;2.03;;
30149;SDS011;16962;48.646;9.026;2023-03-23T01:03:08;3.42;;;2.00;;
30149;SDS011;16962;48.646;9.026;2023-03-23T01:06:07;3.53;;;2.13;;
30149;SDS011;16962;48.646;9.026;2023-03-23T01:08:58;2.42;;;1.80;;
30149;SDS011;16962;48.646;9.026;2023-03-23T01:11:44;3.40;;;2.30;;
30149;SDS011;16962;48.646;9.026;2023-03-23T01:14:31;5.03;;;1.95;;
30149;SDS011;16962;48.646;9.026;2023-03-23T01:17:17;4.53;;;1.80;;
30149;SDS011;16962;48.646;9.026;2023-03-23T01:20:04;3.17;;;2.22;;
30149;SDS011;16962;48.646;9.026;2023-03-23T01:22:52;4.07;;;2.33;;
30149;SDS011;16962;48.646;9.026;2023-03-23T01:25:45;3.38;;;2.10;;
30149;SDS011;16962;48.646;9.026;2023-03-23T01:28:31;8.75;;;2.17;;
30149;SDS011;16962;48.646;9.026;2023-03-23T01:31:24;4.15;;;1.80;;
30149;SDS011;16962;48.646;9.026;2023-03-23T01:34:14;3.60;;;1.70;;
30149;SDS011;16962;48.646;9.026;2023-03-23T01:37:00;3.40;;;1.60;;
30149;SDS011;16962;48.646;9.026;2023-03-23T01:39:48;2.80;;;2.00;;
30149;SDS011;16962;48.646;9.026;2023-03-23T01:42:35;2.67;;;2.08;;
30149;SDS011;16962;48.646;9.026;2023-03-23T01:45:25;2.15;;;1.73;;
30149;SDS011;16962;48.646;9.026;2023-03-23T01:51:32;2.63;;;1.83;;
30149;SDS011;16962;48.646;9.026;2023-03-23T01:54:21;2.67;;;2.13;;
30149;SDS011;16962;48.646;9.026;2023-03-23T01:57:16;4.88;;;1.60;;
30149;SDS011;16962;48.646;9.026;2023-03-23T02:00:09;2.13;;;1.63;;
30149;SDS011;16962;48.646;9.026;2023-03-23T02:03:00;2.33;;;1.50;;
30149;SDS011;16962;48.646;9.026;2023-03-23T02:05:46;4.28;;;2.05;;
30149;SDS011;16962;48.646;9.026;2023-03-23T02:08:32;3.30;;;1.70;;
30149;SDS011;16962;48.646;9.026;2023-03-23T02:11:21;3.55;;;1.85;;
30149;SDS011;16962;48.646;9.026;2023-03-23T02:14:10;2.33;;;1.80;;
30149;SDS011;16962;48.646;9.026;2023-03-23T02:28:59;3.70;;;1.90;;
30149;SDS011;16962;48.646;9.026;2023-03-23T02:34:41;2.55;;;1.77;;
30149;SDS011;16962;48.646;9.026;2023-03-23T02:37:46;1.63;;;1.50;;
30149;SDS011;16962;48.646;9.026;2023-03-23T02:40:41;2.05;;;1.80;;
30149;SDS011;16962;48.646;9.026;2023-03-23T02:43:36;4.57;;;1.90;;
30149;SDS011;16962;48.646;9.026;2023-03-23T02:46:26;2.83;;;1.90;;
30149;SDS011;16962;48.646;9.026;2023-03-23T02:49:16;1.98;;;1.55;;
30149;SDS011;16962;48.646;9.026;2023-03-23T02:52:07;2.80;;;1.60;;
30149;SDS011;16962;48.646;9.026;2023-03-23T02:57:45;3.58;;;1.73;;
30149;SDS011;16962;48.646;9.026;2023-03-23T03:00:32;2.95;;;1.60;;
30149;SDS011;16962;48.646;9.026;2023-03-23T03:03:19;3.92;;;1.67;;
30149;SDS011;16962;48.646;9.026;2023-03-23T03:06:14;2.95;;;1.52;;
30149;SDS011;16962;48.646;9.026;2023-03-23T03:09:29;3.05;;;1.60;;
30149;SDS011;16962;48.646;9.026;2023-03-23T03:12:30;1.85;;;1.42;;
30149;SDS011;16962;48.646;9.026;2023-03-23T03:15:33;3.58;;;1.50;;
30149;SDS011;16962;48.646;9.026;2023-03-23T03:18:28;2.78;;;2.25;;
30149;SDS011;16962;48.646;9.026;2023-03-23T03:21:27;5.55;;;1.88;;
30149;SDS011;16962;48.646;9.026;2023-03-23T03:24:17;2.55;;;1.90;;
30149;SDS011;16962;48.646;9.026;2023-03-23T03:27:05;3.40;;;1.90;;
30149;SDS011;16962;48.646;9.026;2023-03-23T03:30:00;2.80;;;1.70;;
30149;SDS011;16962;48.646;9.026;2023-03-23T03:32:50;2.55;;;2.00;;
30149;SDS011;16962;48.646;9.026;2023-03-23T03:35:38;4.70;;;1.90;;
30149;SDS011;16962;48.646;9.026;2023-03-23T03:38:30;1.90;;;1.42;;
30149;SDS011;16962;48.646;9.026;2023-03-23T03:41:29;2.55;;;1.58;;
30149;SDS011;16962;48.646;9.026;2023-03-23T03:44:17;4.45;;;1.88;;
30149;SDS011;16962;48.646;9.026;2023-03-23T03:47:04;4.35;;;1.70;;
30149;SDS011;16962;48.646;9.026;2023-03-23T03:49:50;6.05;;;1.75;;
30149;SDS011;16962;48.646;9.026;2023-03-23T03:52:36;2.33;;;1.70;;
30149;SDS011;16962;48.646;9.026;2023-03-23T03:55:23;2.28;;;1.60;;
30149;SDS011;16962;48.646;9.026;2023-03-23T03:58:09;3.10;;;1.63;;
30149;SDS011;16962;48.646;9.026;2023-03-23T04:00:55;3.83;;;1.67;;
30149;SDS011;16962;48.646;9.026;2023-03-23T04:03:42;4.00;;;1.75;;
30149;SDS011;16962;48.646;9.026;2023-03-23T04:06:28;2.80;;;1.48;;
30149;SDS011;16962;48.646;9.026;2023-03-23T04:09:15;1.67;;;1.45;;
30149;SDS011;16962;48.646;9.026;2023-03-23T04:12:01;2.80;;;1.80;;
30149;SDS011;16962;48.646;9.026;2023-03-23T04:14:47;2.42;;;1.60;;
30149;SDS011;16962;48.646;9.026;2023-03-23T04:17:35;2.08;;;1.50;;
30149;SDS011;16962;48.646;9.026;2023-03-23T04:20:21;3.08;;;1.50;;
30149;SDS011;16962;48.646;9.026;2023-03-23T04:23:08;2.40;;;1.55;;
30149;SDS011;16962;48.646;9.026;2023-03-23T04:25:54;2.83;;;1.40;;
30149;SDS011;16962;48.646;9.026;2023-03-23T04:28:44;1.95;;;1.60;;
30149;SDS011;16962;48.646;9.026;2023-03-23T04:31:31;4.43;;;1.80;;
30149;SDS011;16962;48.646;9.026;2023-03-23T04:34:17;2.25;;;1.40;;
30149;SDS011;16962;48.646;9.026;2023-03-23T04:37:03;2.53;;;1.52;;
30149;SDS011;16962;48.646;9.026;2023-03-23T04:39:49;2.08;;;1.50;;
30149;SDS011;16962;48.646;9.026;2023-03-23T04:42:45;3.05;;;1.60;;
30149;SDS011;16962;48.646;9.026;2023-03-23T04:45:37;3.10;;;1.40;;
30149;SDS011;16962;48.646;9.026;2023-03-23T04:48:27;2.20;;;1.65;;
30149;SDS011;16962;48.646;9.026;2023-03-23T04:51:18;3.53;;;1.95;;
30149;SDS011;16962;48.646;9.026;2023-03-23T04:54:04;1.90;;;1.50;;
30149;SDS011;16962;48.646;9.026;2023-03-23T04:56:51;3.88;;;1.63;;
30149;SDS011;16962;48.646;9.026;2023-03-23T04:59:37;4.35;;;1.40;;
30149;SDS011;16962;48.646;9.026;2023-03-23T05:02:28;2.35;;;1.67;;
30149;SDS011;16962;48.646;9.026;2023-03-23T05:05:15;2.50;;;1.75;;
30149;SDS011;16962;48.646;9.026;2023-03-23T05:08:04;4.28;;;2.05;;
30149;SDS011;16962;48.646;9.026;2023-03-23T05:10:54;3.50;;;1.88;;
30149;SDS011;16962;48.646;9.026;2023-03-23T05:13:42;2.88;;;1.50;;
30149;SDS011;16962;48.646;9.026;2023-03-23T05:16:29;2.30;;;1.67;;
30149;SDS011;16962;48.646;9.026;2023-03-23T05:19:17;3.45;;;1.92;;
30149;SDS011;16962;48.646;9.026;2023-03-23T05:22:03;2.65;;;1.75;;
30149;SDS011;16962;48.646;9.026;2023-03-23T05:24:50;2.05;;;1.58;;
30149;SDS011;16962;48.646;9.026;2023-03-23T05:27:39;3.50;;;1.90;;
30149;SDS011;16962;48.646;9.026;2023-03-23T05:30:28;3.88;;;1.73;;
30149;SDS011;16962;48.646;9.026;2023-03-23T05:33:15;2.55;;;1.88;;
30149;SDS011;16962;48.646;9.026;2023-03-23T05:36:01;2.90;;;1.60;;
30149;SDS011;16962;48.646;9.026;2023-03-23T05:38:52;2.35;;;1.80;;
30149;SDS011;16962;48.646;9.026;2023-03-23T05:41:38;2.63;;;1.60;;
30149;SDS011;16962;48.646;9.026;2023-03-23T05:44:25;3.42;;;2.10;;
30149;SDS011;16962;48.646;9.026;2023-03-23T05:47:12;2.38;;;1.60;;
30149;SDS011;16962;48.646;9.026;2023-03-23T05:49:58;2.80;;;1.75;;
30149;SDS011;16962;48.646;9.026;2023-03-23T05:52:46;1.70;;;1.60;;
30149;SDS011;16962;48.646;9.026;2023-03-23T05:55:32;2.90;;;1.58;;
30149;SDS011;16962;48.646;9.026;2023-03-23T05:58:20;1.42;;;1.30;;
30149;SDS011;16962;48.646;9.026;2023-03-23T06:01:07;1.40;;;1.30;;
30149;SDS011;16962;48.646;9.026;2023-03-23T06:03:54;3.72;;;1.80;;
30149;SDS011;16962;48.646;9.026;2023-03-23T06:06:44;1.70;;;1.50;;
30149;SDS011;16962;48.646;9.026;2023-03-23T06:09:30;4.40;;;1.48;;
30149;SDS011;16962;48.646;9.026;2023-03-23T06:12:16;2.40;;;1.80;;
30149;SDS011;16962;48.646;9.026;2023-03-23T06:15:06;2.95;;;1.83;;
30149;SDS011;16962;48.646;9.026;2023-03-23T06:17:54;3.08;;;1.73;;
30149;SDS011;16962;48.646;9.026;2023-03-23T06:20:42;2.00;;;1.55;;
30149;SDS011;16962;48.646;9.026;2023-03-23T06:23:29;2.78;;;1.90;;
30149;SDS011;16962;48.646;9.026;2023-03-23T06:26:16;5.40;;;2.03;;
30149;SDS011;16962;48.646;9.026;2023-03-23T06:29:06;3.92;;;2.00;;
30149;SDS011;16962;48.646;9.026;2023-03-23T06:31:57;3.85;;;1.80;;
30149;SDS011;16962;48.646;9.026;2023-03-23T06:34:50;2.72;;;1.70;;
30149;SDS011;16962;48.646;9.026;2023-03-23T06:37:39;4.15;;;1.60;;
30149;SDS011;16962;48.646;9.026;2023-03-23T06:40:25;2.50;;;1.70;;
30149;SDS011;16962;48.646;9.026;2023-03-23T06:43:13;2.25;;;1.60;;
30149;SDS011;16962;48.646;9.026;2023-03-23T06:46:00;2.08;;;1.60;;
30149;SDS011;16962;48.646;9.026;2023-03-23T06:48:47;2.45;;;1.52;;
30149;SDS011;16962;48.646;9.026;2023-03-23T06:51:35;6.85;;;1.98;;
30149;SDS011;16962;48.646;9.026;2023-03-23T06:54:22;3.88;;;2.00;;
30149;SDS011;16962;48.646;9.026;2023-03-23T06:57:08;3.20;;;1.80;;
30149;SDS011;16962;48.646;9.026;2023-03-23T06:59:55;3.25;;;1.83;;
30149;SDS011;16962;48.646;9.026;2023-03-23T07:02:42;2.35;;;1.80;;
30149;SDS011;16962;48.646;9.026;2023-03-23T07:05:29;2.58;;;1.80;;
30149;SDS011;16962;48.646;9.026;2023-03-23T07:08:15;3.53;;;1.88;;
30149;SDS011;16962;48.646;9.026;2023-03-23T07:11:04;3.17;;;1.95;;
30149;SDS011;16962;48.646;9.026;2023-03-23T07:13:51;6.03;;;2.03;;
30149;SDS011;16962;48.646;9.026;2023-03-23T07:16:38;2.78;;;1.83;;
30149;SDS011;16962;48.646;9.026;2023-03-23T07:19:24;6.30;;;1.95;;
30149;SDS011;16962;48.646;9.026;2023-03-23T07:22:10;2.13;;;1.60;;
30149;SDS011;16962;48.646;9.026;2023-03-23T07:24:56;3.33;;;2.20;;
30149;SDS011;16962;48.646;9.026;2023-03-23T07:27:43;5.20;;;2.33;;
30149;SDS011;16962;48.646;9.026;2023-03-23T07:30:31;4.07;;;2.00;;
30149;SDS011;16962;48.646;9.026;2023-03-23T07:33:17;4.28;;;2.15;;
30149;SDS011;16962;48.646;9.026;2023-03-23T07:36:04;8.50;;;2.40;;
30149;SDS011;16962;48.646;9.026;2023-03-23T07:38:51;7.80;;;1.85;;
30149;SDS011;16962;48.646;9.026;2023-03-23T07:41:38;6.47;;;2.22;;
30149;SDS011;16962;48.646;9.026;2023-03-23T07:44:24;8.05;;;2.33;;
30149;SDS011;16962;48.646;9.026;2023-03-23T07:47:13;7.10;;;2.40;;
30149;SDS011;16962;48.646;9.026;2023-03-23T07:50:01;4.20;;;2.22;;
30149;SDS011;16962;48.646;9.026;2023-03-23T07:52:49;4.38;;;2.10;;
30149;SDS011;16962;48.646;9.026;2023-03-23T07:55:42;3.03;;;2.20;;
30149;SDS011;16962;48.646;9.026;2023-03-23T07:58:31;4.97;;;2.28;;
30149;SDS011;16962;48.646;9.026;2023-03-23T08:01:17;2.50;;;2.22;;
30149;SDS011;16962;48.646;9.026;2023-03-23T08:04:05;3.95;;;2.35;;
30149;SDS011;16962;48.646;9.026;2023-03-23T08:06:54;5.18;;;1.90;;
30149;SDS011;16962;48.646;9.026;2023-03-23T08:09:42;4.50;;;2.10;;
30149;SDS011;16962;48.646;9.026;2023-03-23T08:12:28;11.48;;;4.63;;
30149;SDS011;16962;48.646;9.026;2023-03-23T08:15:14;3.83;;;2.78;;
30149;SDS011;16962;48.646;9.026;2023-03-23T08:18:04;5.18;;;3.10;;
30149;SDS011;16962;48.646;9.026;2023-03-23T08:20:55;3.53;;;1.98;;
30149;SDS011;16962;48.646;9.026;2023-03-23T08:23:41;4.20;;;2.30;;
30149;SDS011;16962;48.646;9.026;2023-03-23T08:26:30;5.85;;;2.20;;
30149;SDS011;16962;48.646;9.026;2023-03-23T08:29:16;3.78;;;2.00;;
30149;SDS011;16962;48.646;9.026;2023-03-23T08:32:03;3.53;;;1.85;;
30149;SDS011;16962;48.646;9.026;2023-03-23T08:35:25;4.90;;;2.22;;
30149;SDS011;16962;48.646;9.026;2023-03-23T08:38:12;2.17;;;1.95;;
30149;SDS011;16962;48.646;9.026;2023-03-23T08:40:59;5.90;;;2.05;;
30149;SDS011;16962;48.646;9.026;2023-03-23T08:43:49;5.28;;;1.80;;
30149;SDS011;16962;48.646;9.026;2023-03-23T08:46:38;2.92;;;2.20;;
30149;SDS011;16962;48.646;9.026;2023-03-23T08:49:27;4.65;;;2.10;;
30149;SDS011;16962;48.646;9.026;2023-03-23T08:52:13;3.58;;;1.70;;
30149;SDS011;16962;48.646;9.026;2023-03-23T08:55:01;3.85;;;1.85;;
30149;SDS011;16962;48.646;9.026;2023-03-23T08:57:51;4.05;;;2.08;;
30149;SDS011;16962;48.646;9.026;2023-03-23T09:00:38;2.90;;;1.63;;
30149;SDS011;16962;48.646;9.026;2023-03-23T09:03:25;4.15;;;1.90;;
30149;SDS011;16962;48.646;9.026;2023-03-23T09:06:11;1.58;;;1.48;;
30149;SDS011;16962;48.646;9.026;2023-03-23T09:09:00;2.83;;;1.80;;
30149;SDS011;16962;48.646;9.026;2023-03-23T09:11:52;2.35;;;1.52;;
30149;SDS011;16962;48.646;9.026;2023-03-23T09:14:38;4.78;;;2.05;;
30149;SDS011;16962;48.646;9.026;2023-03-23T09:17:25;2.35;;;1.73;;
30149;SDS011;16962;48.646;9.026;2023-03-23T09:20:12;2.05;;;1.85;;
30149;SDS011;16962;48.646;9.026;2023-03-23T09:23:02;2.40;;;1.77;;
30149;SDS011;16962;48.646;9.026;2023-03-23T09:25:48;3.20;;;2.00;;
30149;SDS011;16962;48.646;9.026;2023-03-23T09:28:36;3.90;;;1.98;;
30149;SDS011;16962;48.646;9.026;2023-03-23T09:31:22;6.10;;;1.83;;
30149;SDS011;16962;48.646;9.026;2023-03-23T09:34:12;3.17;;;1.98;;
30149;SDS011;16962;48.646;9.026;2023-03-23T09:37:00;2.80;;;1.83;;
30149;SDS011;16962;48.646;9.026;2023-03-23T09:39:49;2.67;;;1.90;;
30149;SDS011;16962;48.646;9.026;2023-03-23T09:49:13;5.03;;;2.20;;
30149;SDS011;16962;48.646;9.026;2023-03-23T09:52:21;2.65;;;1.88;;
30149;SDS011;16962;48.646;9.026;2023-03-23T09:55:13;9.32;;;2.20;;
30149;SDS011;16962;48.646;9.026;2023-03-23T10:01:20;3.03;;;1.70;;
30149;SDS011;16962;48.646;9.026;2023-03-23T10:07:37;4.45;;;2.10;;
30149;SDS011;16962;48.646;9.026;2023-03-23T10:10:25;3.08;;;1.70;;
30149;SDS011;16962;48.646;9.026;2023-03-23T10:16:28;2.63;;;1.88;;
30149;SDS011;16962;48.646;9.026;2023-03-23T10:19:20;3.75;;;2.00;;
30149;SDS011;16962;48.646;9.026;2023-03-23T10:22:39;2.67;;;1.85;;
30149;SDS011;16962;48.646;9.026;2023-03-23T10:25:34;5.38;;;2.10;;
30149;SDS011;16962;48.646;9.026;2023-03-23T10:28:44;2.92;;;2.03;;
30149;SDS011;16962;48.646;9.026;2023-03-23T10:31:32;2.33;;;1.88;;
30149;SDS011;16962;48.646;9.026;2023-03-23T10:37:11;3.47;;;2.15;;
30149;SDS011;16962;48.646;9.026;2023-03-23T10:40:12;4.63;;;2.28;;
30149;SDS011;16962;48.646;9.026;2023-03-23T10:43:05;3.47;;;2.10;;
30149;SDS011;16962;48.646;9.026;2023-03-23T10:45:55;2.50;;;2.05;;
30149;SDS011;16962;48.646;9.026;2023-03-23T10:48:50;2.95;;;1.83;;
30149;SDS011;16962;48.646;9.026;2023-03-23T10:51:43;3.75;;;2.00;;
30149;SDS011;16962;48.646;9.026;2023-03-23T10:54:36;3.83;;;2.17;;
30149;SDS011;16962;48.646;9.026;2023-03-23T10:57:25;4.10;;;2.42;;
30149;SDS011;16962;48.646;9.026;2023-03-23T11:00:22;2.88;;;2.25;;
30149;SDS011;16962;48.646;9.026;2023-03-23T11:06:01;2.08;;;1.88;;
30149;SDS011;16962;48.646;9.026;2023-03-23T11:11:50;2.97;;;2.08;;
30149;SDS011;16962;48.646;9.026;2023-03-23T11:14:41;3.17;;;2.25;;
30149;SDS011;16962;48.646;9.026;2023-03-23T11:17:27;3.92;;;2.38;;
30149;SDS011;16962;48.646;9.026;2023-03-23T11:20:18;4.05;;;2.83;;
30149;SDS011;16962;48.646;9.026;2023-03-23T11:23:17;2.90;;;2.20;;
30149;SDS011;16962;48.646;9.026;2023-03-23T11:26:09;4.88;;;2.42;;
30149;SDS011;16962;48.646;9.026;2023-03-23T11:29:13;3.75;;;2.05;;
30149;SDS011;16962;48.646;9.026;2023-03-23T11:32:10;5.10;;;3.20;;
30149;SDS011;16962;48.646;9.026;2023-03-23T11:35:00;2.35;;;1.83;;
30149;SDS011;16962;48.646;9.026;2023-03-23T11:37:51;3.05;;;1.73;;
30149;SDS011;16962;48.646;9.026;2023-03-23T11:40:44;2.90;;;2.28;;
30149;SDS011;16962;48.646;9.026;2023-03-23T11:43:34;4.60;;;2.28;;
30149;SDS011;16962;48.646;9.026;2023-03-23T11:46:34;2.75;;;1.60;;
30149;SDS011;16962;48.646;9.026;2023-03-23T11:49:50;2.78;;;1.73;;
30149;SDS011;16962;48.646;9.026;2023-03-23T11:53:27;4.13;;;1.90;;
30149;SDS011;16962;48.646;9.026;2023-03-23T11:56:42;3.40;;;1.97;;
30149;SDS011;16962;48.646;9.026;2023-03-23T11:59:32;2.92;;;2.00;;
30149;SDS011;16962;48.646;9.026;2023-03-23T12:02:26;3.55;;;2.20;;
30149;SDS011;16962;48.646;9.026;2023-03-23T12:08:35;4.25;;;1.88;;
30149;SDS011;16962;48.646;9.026;2023-03-23T12:11:51;3.35;;;1.63;;
30149;SDS011;16962;48.646;9.026;2023-03-23T12:28:25;4.35;;;1.88;;
30149;SDS011;16962;48.646;9.026;2023-03-23T12:34:10;4.30;;;1.85;;
30149;SDS011;16962;48.646;9.026;2023-03-23T12:44:05;3.30;;;1.95;;
30149;SDS011;16962;48.646;9.026;2023-03-23T12:47:05;3.33;;;2.10;;
30149;SDS011;16962;48.646;9.026;2023-03-23T12:49:54;3.20;;;1.88;;
30149;SDS011;16962;48.646;9.026;2023-03-23T12:55:39;5.13;;;1.77;;
30149;SDS011;16962;48.646;9.026;2023-03-23T12:58:39;2.83;;;1.52;;
30149;SDS011;16962;48.646;9.026;2023-03-23T13:01:41;3.75;;;1.92;;
30149;SDS011;16962;48.646;9.026;2023-03-23T13:04:32;3.78;;;1.70;;
30149;SDS011;16962;48.646;9.026;2023-03-23T13:07:26;2.58;;;1.73;;
30149;SDS011;16962;48.646;9.026;2023-03-23T13:10:23;7.30;;;2.53;;
30149;SDS011;16962;48.646;9.026;2023-03-23T13:16:21;2.90;;;1.73;;
30149;SDS011;16962;48.646;9.026;2023-03-23T13:22:26;2.22;;;1.80;;
30149;SDS011;16962;48.646;9.026;2023-03-23T13:28:29;3.75;;;1.75;;
30149;SDS011;16962;48.646;9.026;2023-03-23T13:31:22;6.70;;;2.35;;
30149;SDS011;16962;48.646;9.026;2023-03-23T13:34:22;4.82;;;1.92;;
30149;SDS011;16962;48.646;9.026;2023-03-23T13:43:24;3.22;;;1.60;;
30149;SDS011;16962;48.646;9.026;2023-03-23T13:49:21;3.08;;;1.90;;
30149;SDS011;16962;48.646;9.026;2023-03-23T13:52:17;3.63;;;1.95;;
30149;SDS011;16962;48.646;9.026;2023-03-23T13:55:38;2.85;;;2.20;;
30149;SDS011;16962;48.646;9.026;2023-03-23T13:58:28;4.20;;;2.15;;
30149;SDS011;16962;48.646;9.026;2023-03-23T14:01:18;3.63;;;1.80;;
30149;SDS011;16962;48.646;9.026;2023-03-23T14:04:18;3.17;;;2.03;;
30149;SDS011;16962;48.646;9.026;2023-03-23T14:07:09;3.75;;;2.15;;
30149;SDS011;16962;48.646;9.026;2023-03-23T14:09:56;6.18;;;2.05;;
30149;SDS011;16962;48.646;9.026;2023-03-23T14:12:52;3.28;;;2.30;;
30149;SDS011;16962;48.646;9.026;2023-03-23T14:15:44;5.63;;;2.13;;
30149;SDS011;16962;48.646;9.026;2023-03-23T14:18:40;2.95;;;1.73;;
30149;SDS011;16962;48.646;9.026;2023-03-23T14:21:41;4.90;;;2.25;;
30149;SDS011;16962;48.646;9.026;2023-03-23T14:24:40;3.85;;;1.80;;
30149;SDS011;16962;48.646;9.026;2023-03-23T14:27:26;3.78;;;2.00;;
30149;SDS011;16962;48.646;9.026;2023-03-23T14:30:21;6.60;;;2.67;;
30149;SDS011;16962;48.646;9.026;2023-03-23T14:33:10;2.40;;;2.10;;
30149;SDS011;16962;48.646;9.026;2023-03-23T14:36:00;2.85;;;2.00;;
30149;SDS011;16962;48.646;9.026;2023-03-23T14:38:46;4.32;;;2.30;;
30149;SDS011;16962;48.646;9.026;2023-03-23T14:41:34;3.78;;;2.38;;
30149;SDS011;16962;48.646;9.026;2023-03-23T14:44:24;3.45;;;1.70;;
30149;SDS011;16962;48.646;9.026;2023-03-23T14:47:16;4.32;;;2.15;;
30149;SDS011;16962;48.646;9.026;2023-03-23T14:56:13;4.70;;;2.20;;
30149;SDS011;16962;48.646;9.026;2023-03-23T14:59:03;3.90;;;2.08;;
30149;SDS011;16962;48.646;9.026;2023-03-23T15:01:51;4.72;;;2.58;;
30149;SDS011;16962;48.646;9.026;2023-03-23T15:04:48;3.08;;;2.25;;
30149;SDS011;16962;48.646;9.026;2023-03-23T15:07:38;3.53;;;2.22;;
30149;SDS011;16962;48.646;9.026;2023-03-23T15:10:32;4.80;;;2.10;;
30149;SDS011;16962;48.646;9.026;2023-03-23T15:13:22;4.65;;;2.33;;
30149;SDS011;16962;48.646;9.026;2023-03-23T15:16:13;2.40;;;1.92;;
30149;SDS011;16962;48.646;9.026;2023-03-23T15:19:03;2.85;;;1.65;;
30149;SDS011;16962;48.646;9.026;2023-03-23T15:22:06;3.20;;;2.03;;
30149;SDS011;16962;48.646;9.026;2023-03-23T15:25:12;7.75;;;2.13;;
30149;SDS011;16962;48.646;9.026;2023-03-23T15:31:05;7.60;;;2.20;;
30149;SDS011;16962;48.646;9.026;2023-03-23T15:33:54;4.40;;;2.42;;
30149;SDS011;16962;48.646;9.026;2023-03-23T15:36:44;6.72;;;2.42;;
30149;SDS011;16962;48.646;9.026;2023-03-23T15:39:31;4.05;;;2.50;;
30149;SDS011;16962;48.646;9.026;2023-03-23T15:42:26;3.75;;;2.33;;
30149;SDS011;16962;48.646;9.026;2023-03-23T15:45:35;3.85;;;2.15;;
30149;SDS011;16962;48.646;9.026;2023-03-23T15:48:23;2.70;;;1.58;;
30149;SDS011;16962;48.646;9.026;2023-03-23T15:51:12;2.42;;;2.20;;
30149;SDS011;16962;48.646;9.026;2023-03-23T15:53:59;5.18;;;2.15;;
30149;SDS011;16962;48.646;9.026;2023-03-23T15:56:47;2.90;;;2.05;;
30149;SDS011;16962;48.646;9.026;2023-03-23T15:59:36;3.55;;;2.00;;
30149;SDS011;16962;48.646;9.026;2023-03-23T16:02:23;4.47;;;2.15;;
30149;SDS011;16962;48.646;9.026;2023-03-23T16:05:15;3.72;;;2.10;;
30149;SDS011;16962;48.646;9.026;2023-03-23T16:08:04;3.25;;;2.00;;
30149;SDS011;16962;48.646;9.026;2023-03-23T16:10:54;5.05;;;1.90;;
30149;SDS011;16962;48.646;9.026;2023-03-23T16:13:43;2.92;;;2.13;;
30149;SDS011;16962;48.646;9.026;2023-03-23T16:16:33;3.42;;;2.05;;
30149;SDS011;16962;48.646;9.026;2023-03-23T16:19:23;3.83;;;2.00;;
30149;SDS011;16962;48.646;9.026;2023-03-23T16:22:11;5.28;;;1.73;;
30149;SDS011;16962;48.646;9.026;2023-03-23T16:24:59;2.38;;;1.92;;
30149;SDS011;16962;48.646;9.026;2023-03-23T16:27:47;3.55;;;1.75;;
30149;SDS011;16962;48.646;9.026;2023-03-23T16:30:40;3.47;;;1.98;;
30149;SDS011;16962;48.646;9.026;2023-03-23T16:33:28;2.40;;;1.90;;
30149;SDS011;16962;48.646;9.026;2023-03-23T16:36:15;4.63;;;1.92;;
30149;SDS011;16962;48.646;9.026;2023-03-23T16:39:05;7.55;;;1.90;;
30149;SDS011;16962;48.646;9.026;2023-03-23T16:41:56;3.95;;;1.90;;
30149;SDS011;16962;48.646;9.026;2023-03-23T16:47:37;3.35;;;1.88;;
30149;SDS011;16962;48.646;9.026;2023-03-23T16:50:25;6.47;;;2.20;;
30149;SDS011;16962;48.646;9.026;2023-03-23T16:53:16;2.67;;;2.10;;
30149;SDS011;16962;48.646;9.026;2023-03-23T16:56:04;2.28;;;2.08;;
30149;SDS011;16962;48.646;9.026;2023-03-23T16:58:52;3.30;;;1.83;;
30149;SDS011;16962;48.646;9.026;2023-03-23T17:01:39;3.17;;;2.20;;
30149;SDS011;16962;48.646;9.026;2023-03-23T17:04:30;2.88;;;1.90;;
30149;SDS011;16962;48.646;9.026;2023-03-23T17:07:18;3.72;;;2.53;;
30149;SDS011;16962;48.646;9.026;2023-03-23T17:10:07;7.13;;;2.15;;
30149;SDS011;16962;48.646;9.026;2023-03-23T17:12:58;3.60;;;2.33;;
30149;SDS011;16962;48.646;9.026;2023-03-23T17:15:50;5.05;;;2.03;;
30149;SDS011;16962;48.646;9.026;2023-03-23T17:18:39;3.05;;;1.85;;
30149;SDS011;16962;48.646;9.026;2023-03-23T17:21:26;3.65;;;2.13;;
30149;SDS011;16962;48.646;9.026;2023-03-23T17:24:16;6.20;;;2.42;;
30149;SDS011;16962;48.646;9.026;2023-03-23T17:27:04;5.00;;;2.00;;
30149;SDS011;16962;48.646;9.026;2023-03-23T17:29:54;3.88;;;2.33;;
30149;SDS011;16962;48.646;9.026;2023-03-23T17:32:42;6.35;;;3.17;;
30149;SDS011;16962;48.646;9.026;2023-03-23T17:35:29;8.25;;;4.38;;
30149;SDS011;16962;48.646;9.026;2023-03-23T17:38:17;7.00;;;4.05;;
30149;SDS011;16962;48.646;9.026;2023-03-23T17:41:05;3.83;;;2.67;;
30149;SDS011;16962;48.646;9.026;2023-03-23T17:43:53;3.35;;;2.40;;
30149;SDS011;16962;48.646;9.026;2023-03-23T17:46:41;4.03;;;2.47;;
30149;SDS011;16962;48.646;9.026;2023-03-23T17:49:29;3.17;;;2.15;;
30149;SDS011;16962;48.646;9.026;2023-03-23T17:52:17;2.63;;;1.98;;
30149;SDS011;16962;48.646;9.026;2023-03-23T17:55:04;4.20;;;2.20;;
30149;SDS011;16962;48.646;9.026;2023-03-23T17:57:52;5.32;;;2.60;;
30149;SDS011;16962;48.646;9.026;2023-03-23T18:00:40;5.57;;;3.00;;
30149;SDS011;16962;48.646;9.026;2023-03-23T18:03:27;4.20;;;2.60;;
30149;SDS011;16962;48.646;9.026;2023-03-23T18:06:17;3.28;;;2.35;;
30149;SDS011;16962;48.646;9.026;2023-03-23T18:09:08;4.80;;;2.70;;
30149;SDS011;16962;48.646;9.026;2023-03-23T18:11:58;3.55;;;2.33;;
30149;SDS011;16962;48.646;9.026;2023-03-23T18:15:04;5.57;;;2.65;;
30149;SDS011;16962;48.646;9.026;2023-03-23T18:17:52;3.95;;;2.38;;
30149;SDS011;16962;48.646;9.026;2023-03-23T18:20:42;4.53;;;2.40;;
30149;SDS011;16962;48.646;9.026;2023-03-23T18:26:24;5.80;;;2.50;;
30149;SDS011;16962;48.646;9.026;2023-03-23T18:29:12;3.83;;;2.38;;
30149;SDS011;16962;48.646;9.026;2023-03-23T18:32:01;4.72;;;2.30;;
30149;SDS011;16962;48.646;9.026;2023-03-23T18:34:49;3.83;;;2.70;;
30149;SDS011;16962;48.646;9.026;2023-03-23T18:37:38;3.78;;;2.03;;
30149;SDS011;16962;48.646;9.026;2023-03-23T18:40:25;4.72;;;2.72;;
30149;SDS011;16962;48.646;9.026;2023-03-23T18:43:13;4.10;;;2.67;;
30149;SDS011;16962;48.646;9.026;2023-03-23T18:46:01;4.50;;;2.50;;
30149;SDS011;16962;48.646;9.026;2023-03-23T18:48:50;4.30;;;2.92;;
30149;SDS011;16962;48.646;9.026;2023-03-23T18:51:38;5.93;;;2.85;;
30149;SDS011;16962;48.646;9.026;2023-03-23T18:54:26;3.72;;;2.90;;
30149;SDS011;16962;48.646;9.026;2023-03-23T18:57:18;4.05;;;2.47;;
30149;SDS011;16962;48.646;9.026;2023-03-23T19:00:10;4.93;;;2.33;;